Holiday — WDF4494 — position and weather

sailwx.info

Track history (hours):
 
Tides and Currents Weather Stations Pressure Air Temp Water Temp Dewpoint Dewpoint Depression Visibility Wind Speed Wind Dir Waves Ship Positions

Holiday

Owner: VOAKLANDER, TIM J, CARDIFF, CA. More information available from US FCC via Universal Licensing System and Coast Guard Vessel Documentation Center.

Last reported at 2018-Jun-17 09:19 UTC. Time now 2018-Jun-20 15:00 UTC.
Position N 32°44' W 117°19'.

Length 24 m.

Type: Wing in ground effect craft. MMSI: 367452560.

Date/timePositionNaut miles runAvg speedWind from/ knotsBaromVisibWave heightAir tempDewpointWater temp
2018-Jun-17 09:19N 32°44' W 117°19'2 5.8
2018-Jun-17 09:01N 32°43' W 117°21'3 5.7
2018-Jun-17 08:31N 32°42' W 117°24'3 5.4
2018-Jun-17 08:01N 32°40' W 117°26'3 5.4
2018-Jun-17 07:29N 32°38' W 117°28'3 5.4
2018-Jun-17 06:59N 32°36' W 117°30'7 0.3
2018-Jun-16 08:07N 32°31' W 117°35'3 6.4
2018-Jun-16 07:40N 32°33' W 117°34'2 6.5
2018-Jun-16 07:26N 32°34' W 117°33'3 6.6
2018-Jun-16 07:01N 32°37' W 117°31'3 6.6
2018-Jun-16 06:30N 32°40' W 117°30'4 7.1
2018-Jun-16 06:00N 32°42' W 117°26'19 0.6
2018-Jun-15 01:05N 32°24' W 117°30'110.4
2018-Jun-15 01:00N 32°23' W 117°31'19 1.0
2018-Jun-14 05:53N 32°41' W 117°23'2 5.3
2018-Jun-14 05:30N 32°42' W 117°21'3 5.2
2018-Jun-14 04:57N 32°44' W 117°19'2 5.5
2018-Jun-14 04:30N 32°45' W 117°16'2 0.1
2018-Jun-13 15:09N 32°46' W 117°14'0 0.0
2018-Jun-13 15:00N 32°46' W 117°14'  
2018-Jun-11 01:52N 32°36' W 117°29'510.1
2018-Jun-11 01:20N 32°32' W 117°34'510.5
2018-Jun-11 00:52N 32°31' W 117°39'4 0.3
2018-Jun-10 08:09N 32°33' W 117°36'1 7.2
2018-Jun-10 08:00N 32°34' W 117°35'4 7.4
2018-Jun-10 07:30N 32°37' W 117°32'4 7.2
2018-Jun-10 07:00N 32°39' W 117°28'4 6.9
2018-Jun-10 06:30N 32°41' W 117°25'3 6.8
2018-Jun-10 06:00N 32°43' W 117°22'3 0.7
2018-Jun-10 02:20N 32°40' W 117°22'27 1.9
2018-Jun-09 12:11N 32°19' W 117°42'1 4.8
2018-Jun-09 11:54N 32°20' W 117°43'0 0.4
2018-Jun-09 10:59N 32°20' W 117°43'8 3.5
2018-Jun-09 08:45N 32°26' W 117°37'1 6.0
2018-Jun-09 08:31N 32°27' W 117°36'3 6.0
2018-Jun-09 08:00N 32°30' W 117°33'3 6.0
2018-Jun-09 07:27N 32°32' W 117°31'4 6.2
2018-Jun-09 06:50N 32°35' W 117°28'2 6.2
2018-Jun-09 06:29N 32°36' W 117°26'3 5.9
2018-Jun-09 06:00N 32°39' W 117°24'3 5.7
2018-Jun-09 05:30N 32°41' W 117°22'3 6.0
2018-Jun-09 05:01N 32°43' W 117°19'  
Track history (hours):
 
Tides and Currents Weather Stations Pressure Air Temp Water Temp Dewpoint Dewpoint Depression Visibility Wind Speed Wind Dir Waves Ship Positions

Holiday

Owner: VOAKLANDER, TIM J, CARDIFF, CA. More information available from US FCC via Universal Licensing System and Coast Guard Vessel Documentation Center.

Last reported at 2018-Jun-17 09:19 UTC. Time now 2018-Jun-20 15:00 UTC.
Position N 32°44' W 117°19'.

Length 24 m.

Type: Wing in ground effect craft. MMSI: 367452560.

Date/timePositionNaut miles runAvg speedWind from/ knotsBaromVisibWave heightAir tempDewpointWater temp
2018-Jun-17 09:19N 32°44' W 117°19'2 5.8
2018-Jun-17 09:01N 32°43' W 117°21'3 5.7
2018-Jun-17 08:31N 32°42' W 117°24'3 5.4
2018-Jun-17 08:01N 32°40' W 117°26'3 5.4
2018-Jun-17 07:29N 32°38' W 117°28'3 5.4
2018-Jun-17 06:59N 32°36' W 117°30'7 0.3
2018-Jun-16 08:07N 32°31' W 117°35'3 6.4
2018-Jun-16 07:40N 32°33' W 117°34'2 6.5
2018-Jun-16 07:26N 32°34' W 117°33'3 6.6
2018-Jun-16 07:01N 32°37' W 117°31'3 6.6
2018-Jun-16 06:30N 32°40' W 117°30'4 7.1
2018-Jun-16 06:00N 32°42' W 117°26'19 0.6
2018-Jun-15 01:05N 32°24' W 117°30'110.4
2018-Jun-15 01:00N 32°23' W 117°31'19 1.0
2018-Jun-14 05:53N 32°41' W 117°23'2 5.3
2018-Jun-14 05:30N 32°42' W 117°21'3 5.2
2018-Jun-14 04:57N 32°44' W 117°19'2 5.5
2018-Jun-14 04:30N 32°45' W 117°16'2 0.1
2018-Jun-13 15:09N 32°46' W 117°14'0 0.0
2018-Jun-13 15:00N 32°46' W 117°14'  
2018-Jun-11 01:52N 32°36' W 117°29'510.1
2018-Jun-11 01:20N 32°32' W 117°34'510.5
2018-Jun-11 00:52N 32°31' W 117°39'4 0.3
2018-Jun-10 08:09N 32°33' W 117°36'1 7.2
2018-Jun-10 08:00N 32°34' W 117°35'4 7.4
2018-Jun-10 07:30N 32°37' W 117°32'4 7.2
2018-Jun-10 07:00N 32°39' W 117°28'4 6.9
2018-Jun-10 06:30N 32°41' W 117°25'3 6.8
2018-Jun-10 06:00N 32°43' W 117°22'3 0.7
2018-Jun-10 02:20N 32°40' W 117°22'27 1.9
2018-Jun-09 12:11N 32°19' W 117°42'1 4.8
2018-Jun-09 11:54N 32°20' W 117°43'0 0.4
2018-Jun-09 10:59N 32°20' W 117°43'8 3.5
2018-Jun-09 08:45N 32°26' W 117°37'1 6.0
2018-Jun-09 08:31N 32°27' W 117°36'3 6.0
2018-Jun-09 08:00N 32°30' W 117°33'3 6.0
2018-Jun-09 07:27N 32°32' W 117°31'4 6.2
2018-Jun-09 06:50N 32°35' W 117°28'2 6.2
2018-Jun-09 06:29N 32°36' W 117°26'3 5.9
2018-Jun-09 06:00N 32°39' W 117°24'3 5.7
2018-Jun-09 05:30N 32°41' W 117°22'3 6.0
2018-Jun-09 05:01N 32°43' W 117°19'  

Dump ship's entire track history